createdAt,value
2023-11-14T00:00:15.358Z,11.70
2023-11-14T00:01:17.079Z,11.70
2023-11-14T00:02:18.802Z,11.70
2023-11-14T00:03:20.690Z,11.70
2023-11-14T00:04:22.536Z,11.80
2023-11-14T00:05:24.376Z,11.80
2023-11-14T00:06:26.036Z,11.80
2023-11-14T00:07:27.846Z,11.80
2023-11-14T00:08:29.539Z,11.80
2023-11-14T00:09:31.323Z,11.80
2023-11-14T00:10:33.072Z,11.80
2023-11-14T00:11:37.205Z,11.80
2023-11-14T00:12:38.958Z,11.80
2023-11-14T00:13:40.757Z,11.80
2023-11-14T00:14:46.409Z,11.80
2023-11-14T00:15:48.273Z,11.80
2023-11-14T00:16:50.161Z,11.80
2023-11-14T00:17:51.986Z,11.80
2023-11-14T00:18:53.774Z,11.80
2023-11-14T00:19:55.486Z,11.80
2023-11-14T00:20:57.336Z,11.80
2023-11-14T00:21:58.984Z,11.80
2023-11-14T00:23:00.835Z,11.80
2023-11-14T00:24:02.822Z,11.80
2023-11-14T00:25:05.294Z,11.80
2023-11-14T00:26:06.990Z,11.80
2023-11-14T00:27:09.027Z,11.80
2023-11-14T00:28:10.872Z,11.80
2023-11-14T00:29:13.017Z,11.80
2023-11-14T00:30:14.952Z,11.80
2023-11-14T00:31:16.605Z,11.80
2023-11-14T00:32:18.673Z,11.80
2023-11-14T00:33:20.423Z,11.80
2023-11-14T00:34:23.877Z,11.80
2023-11-14T00:35:26.032Z,11.80
2023-11-14T00:36:27.816Z,11.80
2023-11-14T00:37:30.002Z,11.70
2023-11-14T00:38:31.760Z,11.70
2023-11-14T00:39:33.440Z,11.70
2023-11-14T00:40:35.121Z,11.80
2023-11-14T00:41:37.023Z,11.80
2023-11-14T00:42:38.660Z,11.80
2023-11-14T00:43:40.345Z,11.90
2023-11-14T00:44:42.229Z,11.80
2023-11-14T00:45:43.905Z,11.80
2023-11-14T00:46:45.619Z,11.80
2023-11-14T00:47:47.486Z,11.80
2023-11-14T00:48:49.146Z,11.80
2023-11-14T00:49:50.893Z,11.90
2023-11-14T00:50:52.567Z,11.90
2023-11-14T00:51:56.077Z,11.90
2023-11-14T00:52:57.743Z,11.90
2023-11-14T00:53:59.424Z,11.90
2023-11-14T00:55:02.168Z,11.90
2023-11-14T00:56:04.170Z,11.80
2023-11-14T00:57:05.847Z,11.90
2023-11-14T00:58:07.717Z,11.90
2023-11-14T00:59:09.641Z,11.90
2023-11-14T01:00:13.199Z,11.90
2023-11-14T01:01:15.270Z,11.90
2023-11-14T01:02:16.960Z,12.00
2023-11-14T01:03:19.541Z,12.00
2023-11-14T01:04:21.816Z,12.00
2023-11-14T01:05:24.519Z,12.10
2023-11-14T01:06:27.693Z,12.10
2023-11-14T01:07:29.352Z,12.10
2023-11-14T01:08:31.098Z,12.20
2023-11-14T01:09:32.738Z,12.10
2023-11-14T01:10:34.454Z,12.20
2023-11-14T01:11:36.515Z,12.20
2023-11-14T01:12:38.302Z,12.20
2023-11-14T01:13:40.840Z,12.20
2023-11-14T01:14:42.604Z,12.20
2023-11-14T01:15:44.489Z,12.20
2023-11-14T01:16:46.323Z,12.20
2023-11-14T01:17:48.059Z,12.10
2023-11-14T01:18:49.814Z,12.10
2023-11-14T01:19:51.809Z,12.10
2023-11-14T01:20:53.575Z,12.00
2023-11-14T01:21:55.345Z,12.00
2023-11-14T01:22:57.123Z,12.00
2023-11-14T01:23:58.821Z,12.00
2023-11-14T01:25:00.544Z,11.90
2023-11-14T01:26:02.317Z,12.00
2023-11-14T01:27:04.333Z,12.00
2023-11-14T01:28:06.409Z,12.00
2023-11-14T01:29:08.406Z,11.90
2023-11-14T01:30:10.375Z,11.90
2023-11-14T01:31:22.916Z,11.90
2023-11-14T01:32:24.816Z,11.90
2023-11-14T01:33:26.813Z,12.00
2023-11-14T01:34:29.027Z,12.00
2023-11-14T01:35:30.702Z,12.00
2023-11-14T01:36:32.606Z,12.00
2023-11-14T01:37:34.595Z,12.00
2023-11-14T01:38:37.274Z,12.10
2023-11-14T01:39:43.152Z,12.10
2023-11-14T01:40:52.257Z,12.00
2023-11-14T01:41:54.323Z,12.00
2023-11-14T01:43:02.538Z,12.10
2023-11-14T01:44:05.052Z,12.10
2023-11-14T01:45:07.229Z,12.10
2023-11-14T01:46:09.052Z,12.10
2023-11-14T01:47:10.958Z,12.00
2023-11-14T01:48:14.011Z,12.00
2023-11-14T01:49:16.671Z,12.00
2023-11-14T01:50:20.335Z,12.00
2023-11-14T01:51:25.119Z,12.00
2023-11-14T01:52:26.997Z,12.00
2023-11-14T01:53:28.695Z,12.00
2023-11-14T01:54:30.433Z,12.00
2023-11-14T01:55:32.715Z,11.90
2023-11-14T01:56:34.501Z,11.90
2023-11-14T01:57:36.393Z,11.90
2023-11-14T01:58:38.443Z,11.90
2023-11-14T01:59:44.864Z,11.90
2023-11-14T02:00:47.180Z,11.90
2023-11-14T02:01:48.975Z,12.00
2023-11-14T02:02:50.883Z,12.00
2023-11-14T02:03:52.880Z,12.00
2023-11-14T02:04:55.591Z,12.10
2023-11-14T02:05:57.272Z,12.00
2023-11-14T02:06:59.767Z,12.00
2023-11-14T02:08:02.871Z,12.00
2023-11-14T02:09:05.286Z,12.00
2023-11-14T02:10:07.705Z,12.00
2023-11-14T02:11:09.487Z,12.00
2023-11-14T02:12:11.237Z,12.00
2023-11-14T02:13:13.469Z,12.00
2023-11-14T02:14:15.300Z,12.00
2023-11-14T02:15:17.040Z,12.00
2023-11-14T02:16:18.768Z,12.00
2023-11-14T02:17:21.343Z,12.00
2023-11-14T02:18:23.242Z,12.10
2023-11-14T02:19:25.317Z,12.10
2023-11-14T02:20:26.941Z,12.10
2023-11-14T02:21:28.701Z,12.10
2023-11-14T02:22:30.449Z,12.20
2023-11-14T02:23:37.422Z,12.20
2023-11-14T02:24:49.490Z,12.20
2023-11-14T02:25:51.244Z,12.20
2023-11-14T02:26:52.995Z,12.10
2023-11-14T02:27:54.640Z,12.10
2023-11-14T02:29:00.125Z,12.10
2023-11-14T02:30:03.996Z,12.10
2023-11-14T02:31:05.972Z,12.10
2023-11-14T02:32:07.694Z,12.10
2023-11-14T02:33:09.710Z,12.00
2023-11-14T02:34:11.886Z,12.10
2023-11-14T02:35:14.208Z,12.10
2023-11-14T02:36:15.969Z,12.00
2023-11-14T02:37:17.714Z,12.10
2023-11-14T02:38:19.934Z,12.00
2023-11-14T02:39:21.738Z,12.00
2023-11-14T02:40:24.866Z,12.00
2023-11-14T02:41:26.762Z,12.00
2023-11-14T02:42:28.406Z,11.90
2023-11-14T02:43:30.181Z,11.90
2023-11-14T02:44:31.872Z,11.90
2023-11-14T02:45:33.536Z,11.90
2023-11-14T02:46:36.604Z,11.90
2023-11-14T02:47:39.149Z,11.90
2023-11-14T02:48:40.899Z,11.90
2023-11-14T02:50:10.167Z,11.90
2023-11-14T02:51:11.889Z,11.80
2023-11-14T02:52:13.524Z,11.80
2023-11-14T02:53:15.281Z,11.80
2023-11-14T02:54:16.907Z,11.70
2023-11-14T02:55:18.768Z,11.70
2023-11-14T02:56:20.879Z,11.70
2023-11-14T02:57:22.579Z,11.70
2023-11-14T02:58:24.222Z,11.70
2023-11-14T02:59:26.091Z,11.70
2023-11-14T03:00:27.996Z,11.70
2023-11-14T03:01:29.690Z,11.70
2023-11-14T03:02:31.449Z,11.70
2023-11-14T03:03:33.198Z,11.70
2023-11-14T03:04:34.969Z,11.70
2023-11-14T03:05:37.772Z,11.70
2023-11-14T03:06:40.896Z,11.70
2023-11-14T03:07:42.567Z,11.70
2023-11-14T03:08:44.212Z,11.60
2023-11-14T03:09:46.823Z,11.60
2023-11-14T03:10:48.546Z,11.60
2023-11-14T03:11:50.280Z,11.60
2023-11-14T03:12:51.951Z,11.60
2023-11-14T03:13:53.780Z,11.70
2023-11-14T03:14:55.527Z,11.70
2023-11-14T03:15:57.294Z,11.70
2023-11-14T03:16:59.752Z,11.70
2023-11-14T03:18:01.974Z,11.70
2023-11-14T03:19:03.675Z,11.80
2023-11-14T03:20:08.081Z,11.80
2023-11-14T03:21:12.152Z,11.80
2023-11-14T03:22:14.145Z,11.80
2023-11-14T03:23:15.828Z,11.80
2023-11-14T03:24:17.554Z,11.80
2023-11-14T03:25:19.361Z,11.70
2023-11-14T03:26:31.884Z,11.70
2023-11-14T03:27:33.923Z,11.70
2023-11-14T03:28:35.809Z,11.70
2023-11-14T03:29:37.547Z,11.70
2023-11-14T03:30:39.169Z,11.70
2023-11-14T03:31:40.958Z,11.60
2023-11-14T03:32:42.717Z,11.60
2023-11-14T03:33:44.374Z,11.60
2023-11-14T03:34:46.037Z,11.60
2023-11-14T03:35:47.737Z,11.60
2023-11-14T03:36:57.365Z,11.50
2023-11-14T03:37:59.074Z,11.50
2023-11-14T03:39:00.785Z,11.50
2023-11-14T03:40:04.519Z,11.50
2023-11-14T03:41:06.377Z,11.50
2023-11-14T03:42:08.353Z,11.50
2023-11-14T03:43:09.985Z,11.50
2023-11-14T03:44:11.674Z,11.50
2023-11-14T03:45:13.354Z,11.50
2023-11-14T03:46:15.043Z,11.50
2023-11-14T03:47:16.816Z,11.50
2023-11-14T03:48:18.467Z,11.50
2023-11-14T03:49:20.129Z,11.50
2023-11-14T03:50:22.192Z,11.60
2023-11-14T03:51:23.918Z,11.60
2023-11-14T03:52:26.949Z,11.60
2023-11-14T03:53:28.738Z,11.60
2023-11-14T03:54:30.412Z,11.70
2023-11-14T03:55:32.117Z,11.70
2023-11-14T03:56:33.776Z,11.70
2023-11-14T03:57:35.492Z,11.70
2023-11-14T03:58:40.559Z,11.70
2023-11-14T03:59:42.331Z,11.70
2023-11-14T04:00:44.279Z,11.60
2023-11-14T04:01:46.046Z,11.70
2023-11-14T04:02:47.822Z,11.70
2023-11-14T04:03:49.511Z,11.70
2023-11-14T04:04:51.270Z,11.70
2023-11-14T04:05:52.993Z,11.60
2023-11-14T04:06:54.674Z,11.60
2023-11-14T04:07:56.861Z,11.60
2023-11-14T04:08:58.603Z,11.60
2023-11-14T04:10:00.348Z,11.60
2023-11-14T04:11:03.071Z,11.60
2023-11-14T04:12:04.988Z,11.60
2023-11-14T04:13:06.767Z,11.50
2023-11-14T04:14:08.599Z,11.50
2023-11-14T04:15:10.974Z,11.50
2023-11-14T04:16:12.767Z,11.50
2023-11-14T04:17:14.623Z,11.50
2023-11-14T04:18:16.715Z,11.40
2023-11-14T04:19:18.478Z,11.40
2023-11-14T04:20:20.390Z,11.40
2023-11-14T04:21:22.214Z,11.40
2023-11-14T04:22:23.919Z,11.40
2023-11-14T04:23:25.938Z,11.30
2023-11-14T04:24:27.730Z,11.30
2023-11-14T04:25:29.403Z,11.30
2023-11-14T04:26:31.984Z,11.30
2023-11-14T04:27:33.791Z,11.30
2023-11-14T04:28:35.483Z,11.30
2023-11-14T04:29:37.261Z,11.30
2023-11-14T04:30:39.056Z,11.30
2023-11-14T04:31:40.753Z,11.30
2023-11-14T04:32:42.559Z,11.20
2023-11-14T04:33:44.425Z,11.20
2023-11-14T04:34:46.446Z,11.20
2023-11-14T04:37:10.488Z,11.20
2023-11-14T04:38:12.435Z,11.30
2023-11-14T04:39:14.635Z,11.30
2023-11-14T04:40:16.547Z,11.30
2023-11-14T04:41:19.122Z,11.30
2023-11-14T04:42:20.865Z,11.30
2023-11-14T04:43:22.593Z,11.30
2023-11-14T04:44:24.387Z,11.30
2023-11-14T04:45:27.106Z,11.30
2023-11-14T04:46:29.436Z,11.30
2023-11-14T04:47:31.164Z,11.30
2023-11-14T04:48:32.859Z,11.30
2023-11-14T04:49:35.016Z,11.30
2023-11-14T04:50:36.746Z,11.40
2023-11-14T04:51:38.486Z,11.40
2023-11-14T04:52:40.159Z,11.40
2023-11-14T04:53:41.822Z,11.40
2023-11-14T04:54:43.483Z,11.50
2023-11-14T04:55:45.111Z,11.50
2023-11-14T04:56:46.918Z,11.50
2023-11-14T04:57:48.648Z,11.50
2023-11-14T04:58:50.723Z,11.50
2023-11-14T04:59:52.890Z,11.50
2023-11-14T05:00:54.568Z,11.50
2023-11-14T05:01:56.323Z,11.50
2023-11-14T05:02:58.103Z,11.50
2023-11-14T05:03:59.837Z,11.50
2023-11-14T05:05:02.248Z,11.50
2023-11-14T05:06:05.944Z,11.50
2023-11-14T05:07:07.634Z,11.50
2023-11-14T05:08:09.841Z,11.60
2023-11-14T05:09:14.513Z,11.50
2023-11-14T05:10:16.765Z,11.50
2023-11-14T05:11:18.673Z,11.50
2023-11-14T05:12:20.305Z,11.50
2023-11-14T05:13:22.025Z,11.50
2023-11-14T05:14:23.641Z,11.50
2023-11-14T05:15:25.373Z,11.50
2023-11-14T05:16:27.091Z,11.50
2023-11-14T05:17:28.901Z,11.50
2023-11-14T05:18:30.737Z,11.40
2023-11-14T05:19:32.484Z,11.40
2023-11-14T05:20:34.216Z,11.40
2023-11-14T05:21:39.709Z,11.40
2023-11-14T05:22:41.413Z,11.40
2023-11-14T05:23:43.094Z,11.40
2023-11-14T05:24:45.606Z,11.40
2023-11-14T05:25:47.579Z,11.40
2023-11-14T05:26:50.346Z,11.30
2023-11-14T05:27:52.438Z,11.40
2023-11-14T05:28:54.163Z,11.30
2023-11-14T05:29:56.402Z,11.30
2023-11-14T05:30:58.215Z,11.30
2023-11-14T05:31:59.956Z,11.30
2023-11-14T05:33:01.695Z,11.20
2023-11-14T05:34:04.424Z,11.20
2023-11-14T05:35:06.904Z,11.20
2023-11-14T05:36:09.022Z,11.20
2023-11-14T05:37:10.697Z,11.20
2023-11-14T05:38:12.469Z,11.20
2023-11-14T05:39:15.695Z,11.20
2023-11-14T05:40:17.373Z,11.20
2023-11-14T05:41:19.122Z,11.20
2023-11-14T05:42:21.045Z,11.20
2023-11-14T05:43:22.675Z,11.20
2023-11-14T05:44:24.314Z,11.20
2023-11-14T05:45:26.002Z,11.20
2023-11-14T05:46:27.734Z,11.30
2023-11-14T05:47:29.545Z,11.20
2023-11-14T05:48:31.247Z,11.30
2023-11-14T05:49:34.333Z,11.30
2023-11-14T05:50:36.066Z,11.30
2023-11-14T05:51:37.992Z,11.30
2023-11-14T05:52:39.781Z,11.30
2023-11-14T05:53:43.843Z,11.30
2023-11-14T05:54:46.143Z,11.30
2023-11-14T05:55:47.820Z,11.30
2023-11-14T05:56:49.521Z,11.30
2023-11-14T05:57:51.214Z,11.30
2023-11-14T05:58:52.933Z,11.20
2023-11-14T05:59:56.910Z,11.20
2023-11-14T06:00:58.886Z,11.30
2023-11-14T06:02:00.760Z,11.30
2023-11-14T06:03:02.627Z,11.20
2023-11-14T06:04:04.649Z,11.30
2023-11-14T06:05:07.077Z,11.30
2023-11-14T06:06:09.010Z,11.30
2023-11-14T06:07:10.676Z,11.30
2023-11-14T06:08:12.441Z,11.30
2023-11-14T06:09:14.121Z,11.30
2023-11-14T06:10:16.132Z,11.30
2023-11-14T06:11:19.152Z,11.20
2023-11-14T06:12:20.902Z,11.20
2023-11-14T06:13:22.531Z,11.30
2023-11-14T06:14:24.206Z,11.30
2023-11-14T06:15:26.346Z,11.20
2023-11-14T06:16:28.048Z,11.20
2023-11-14T06:17:29.890Z,11.20
2023-11-14T06:18:31.771Z,11.20
2023-11-14T06:19:33.590Z,11.20
2023-11-14T06:20:35.984Z,11.20
2023-11-14T06:21:37.677Z,11.20
2023-11-14T06:22:40.635Z,11.30
2023-11-14T06:23:42.310Z,11.30
2023-11-14T06:24:43.946Z,11.30
2023-11-14T06:25:45.647Z,11.30
2023-11-14T06:26:47.286Z,11.30
2023-11-14T06:27:48.999Z,11.30
2023-11-14T06:28:50.648Z,11.30
2023-11-14T06:29:52.441Z,11.20
2023-11-14T06:30:54.156Z,11.20
2023-11-14T06:31:55.907Z,11.10
2023-11-14T06:32:57.668Z,11.10
2023-11-14T06:33:59.494Z,11.00
2023-11-14T06:35:01.522Z,11.00
2023-11-14T06:36:03.398Z,11.00
2023-11-14T06:37:05.183Z,10.90
2023-11-14T06:38:06.879Z,10.90
2023-11-14T06:39:08.595Z,10.90
2023-11-14T06:40:11.412Z,10.90
2023-11-14T06:41:13.284Z,10.80
2023-11-14T06:42:15.231Z,10.80
2023-11-14T06:43:17.041Z,10.80
2023-11-14T06:44:19.896Z,10.80
2023-11-14T06:45:21.728Z,10.80
2023-11-14T06:46:23.421Z,10.80
2023-11-14T06:47:25.103Z,10.80
2023-11-14T06:48:27.010Z,10.80
2023-11-14T06:49:28.989Z,10.80
2023-11-14T06:50:37.986Z,10.80
2023-11-14T06:51:45.759Z,10.80
2023-11-14T06:52:47.585Z,10.80
2023-11-14T06:53:49.379Z,10.70
2023-11-14T06:54:51.138Z,10.70
2023-11-14T06:55:52.892Z,10.70
2023-11-14T06:56:54.705Z,10.70
2023-11-14T06:57:57.300Z,10.70
2023-11-14T06:58:59.025Z,10.70
2023-11-14T07:00:06.756Z,10.60
2023-11-14T07:01:08.544Z,10.60
2023-11-14T07:02:10.481Z,10.70
2023-11-14T07:03:13.601Z,10.70
2023-11-14T07:04:16.186Z,10.70
2023-11-14T07:05:19.746Z,10.70
2023-11-14T07:06:21.381Z,10.60
2023-11-14T07:07:23.256Z,10.60
2023-11-14T07:08:25.058Z,10.60
2023-11-14T07:09:27.387Z,10.60
2023-11-14T07:10:31.541Z,10.60
2023-11-14T07:11:33.377Z,10.60
2023-11-14T07:12:35.274Z,10.60
2023-11-14T07:13:37.026Z,10.60
2023-11-14T07:14:38.830Z,10.70
2023-11-14T07:15:40.604Z,10.70
2023-11-14T07:16:42.668Z,10.70
2023-11-14T07:17:47.367Z,10.70
2023-11-14T07:18:49.163Z,10.70
2023-11-14T07:19:50.925Z,10.70
2023-11-14T07:20:52.856Z,10.80
2023-11-14T07:21:56.410Z,10.80
2023-11-14T07:22:58.058Z,10.80
2023-11-14T07:24:00.516Z,10.80
2023-11-14T07:25:02.220Z,10.80
2023-11-14T07:26:04.149Z,10.80
2023-11-14T07:27:07.935Z,10.80
2023-11-14T07:28:09.612Z,10.80
2023-11-14T07:29:12.261Z,10.80
2023-11-14T07:30:14.313Z,10.80
2023-11-14T07:31:15.988Z,10.80
2023-11-14T07:32:17.872Z,10.80
2023-11-14T07:33:19.531Z,10.80
2023-11-14T07:34:21.562Z,10.80
2023-11-14T07:35:24.716Z,10.80
2023-11-14T07:36:26.797Z,10.80
2023-11-14T07:37:28.441Z,10.80
2023-11-14T07:38:30.872Z,10.80
2023-11-14T07:39:32.532Z,10.80
2023-11-14T07:40:35.080Z,10.80
2023-11-14T07:41:36.748Z,10.90
2023-11-14T07:42:38.433Z,10.90
2023-11-14T07:43:41.000Z,10.90
2023-11-14T07:44:43.263Z,10.90
2023-11-14T07:45:45.104Z,10.90
2023-11-14T07:46:46.904Z,10.90
2023-11-14T07:47:49.446Z,10.90
2023-11-14T07:48:51.649Z,10.90
2023-11-14T07:49:53.505Z,10.90
2023-11-14T07:50:58.683Z,10.90
2023-11-14T07:52:01.131Z,10.90
2023-11-14T07:53:02.988Z,11.00
2023-11-14T07:54:04.921Z,10.90
2023-11-14T07:55:07.021Z,10.90
2023-11-14T07:56:09.092Z,10.90
2023-11-14T07:57:10.752Z,10.90
2023-11-14T07:58:13.825Z,10.90
2023-11-14T07:59:15.587Z,10.90
2023-11-14T08:00:18.804Z,10.90
2023-11-14T08:01:20.514Z,10.90
2023-11-14T08:02:22.293Z,10.80
2023-11-14T08:03:27.054Z,10.80
2023-11-14T08:04:28.942Z,10.80
2023-11-14T08:05:33.247Z,10.80
2023-11-14T08:06:35.190Z,10.80
2023-11-14T08:07:36.937Z,10.80
2023-11-14T08:08:38.574Z,10.80
2023-11-14T08:09:40.235Z,10.70
2023-11-14T08:10:42.786Z,10.70
2023-11-14T08:11:44.458Z,10.70
2023-11-14T08:12:46.630Z,10.70
2023-11-14T08:13:48.345Z,10.80
2023-11-14T08:14:50.234Z,10.80
2023-11-14T08:15:52.148Z,10.80
2023-11-14T08:16:54.323Z,10.80
2023-11-14T08:17:56.084Z,10.80
2023-11-14T08:18:59.241Z,10.80
2023-11-14T08:20:02.000Z,10.80
2023-11-14T08:21:04.793Z,10.80
2023-11-14T08:22:07.690Z,10.80
2023-11-14T08:23:09.415Z,10.80
2023-11-14T08:24:11.122Z,10.70
2023-11-14T08:25:12.892Z,10.70
2023-11-14T08:26:14.539Z,10.70
2023-11-14T08:27:17.068Z,10.70
2023-11-14T08:28:19.416Z,10.70
2023-11-14T08:29:21.393Z,10.60
2023-11-14T08:30:23.273Z,10.60
2023-11-14T08:31:24.972Z,10.60
2023-11-14T08:32:26.743Z,10.60
2023-11-14T08:33:28.405Z,10.60
2023-11-14T08:34:30.167Z,10.50
2023-11-14T08:35:32.964Z,10.50
2023-11-14T08:36:34.642Z,10.50
2023-11-14T08:37:37.245Z,10.50
2023-11-14T08:38:39.019Z,10.50
2023-11-14T08:39:41.026Z,10.50
2023-11-14T08:40:42.738Z,10.40
2023-11-14T08:41:44.472Z,10.50
2023-11-14T08:42:50.272Z,10.50
2023-11-14T08:43:52.292Z,10.50
2023-11-14T08:44:53.980Z,10.50
2023-11-14T08:45:55.672Z,10.50
2023-11-14T08:46:57.409Z,10.50
2023-11-14T08:48:02.420Z,10.50
2023-11-14T08:49:08.497Z,10.50
2023-11-14T08:50:11.119Z,10.60
2023-11-14T08:51:16.958Z,10.60
2023-11-14T08:52:19.815Z,10.60
2023-11-14T08:53:22.857Z,10.70
2023-11-14T08:54:24.857Z,10.70
2023-11-14T08:55:26.520Z,10.70
2023-11-14T08:56:30.320Z,10.70
2023-11-14T08:57:32.025Z,10.70
2023-11-14T08:58:33.686Z,10.70
2023-11-14T08:59:35.397Z,10.70
2023-11-14T09:00:37.086Z,10.70
2023-11-14T09:01:40.268Z,10.70
2023-11-14T09:02:42.332Z,10.70
2023-11-14T09:03:45.651Z,10.80
2023-11-14T09:04:47.521Z,10.80
2023-11-14T09:05:50.024Z,10.80
2023-11-14T09:06:52.913Z,10.80
2023-11-14T09:07:54.817Z,10.80
2023-11-14T09:08:56.788Z,10.80
2023-11-14T09:09:59.427Z,10.80
2023-11-14T09:11:01.413Z,10.80
2023-11-14T09:12:03.143Z,10.90
2023-11-14T09:13:04.880Z,10.90
2023-11-14T09:14:06.955Z,10.90
2023-11-14T09:15:10.400Z,10.90
2023-11-14T09:16:12.541Z,10.90
2023-11-14T09:17:14.720Z,10.90
2023-11-14T09:18:16.769Z,10.90
2023-11-14T09:19:18.676Z,11.00
2023-11-14T09:20:20.600Z,11.00
2023-11-14T09:21:22.631Z,11.00
2023-11-14T09:22:26.728Z,11.00
2023-11-14T09:23:28.441Z,11.00
2023-11-14T09:24:30.209Z,11.00
2023-11-14T09:25:31.892Z,11.00
2023-11-14T09:26:33.573Z,11.00
2023-11-14T09:27:35.300Z,11.00
2023-11-14T09:28:37.885Z,11.00
2023-11-14T09:29:39.565Z,11.00
2023-11-14T09:30:41.802Z,11.00
2023-11-14T09:31:44.038Z,11.00
2023-11-14T09:32:47.336Z,11.00
2023-11-14T09:33:49.039Z,11.00
2023-11-14T09:34:51.481Z,11.00
2023-11-14T09:35:53.982Z,11.00
2023-11-14T09:36:55.635Z,11.00
2023-11-14T09:37:58.001Z,11.00
2023-11-14T09:38:59.887Z,11.00
2023-11-14T09:40:02.141Z,11.00
2023-11-14T09:41:04.374Z,11.00
2023-11-14T09:42:06.315Z,11.00
2023-11-14T09:43:08.298Z,11.00
2023-11-14T09:44:11.185Z,11.00
2023-11-14T09:45:13.829Z,11.10
2023-11-14T09:46:16.280Z,11.10
2023-11-14T09:47:18.213Z,11.10
2023-11-14T09:48:20.521Z,11.10
2023-11-14T09:49:22.260Z,11.10
2023-11-14T09:50:24.695Z,11.10
2023-11-14T09:51:27.650Z,11.10
2023-11-14T09:52:29.723Z,11.10
2023-11-14T09:53:33.784Z,11.10
2023-11-14T09:54:35.727Z,11.10
2023-11-14T09:55:39.472Z,11.10
2023-11-14T09:56:41.194Z,11.10
2023-11-14T09:57:49.173Z,11.10
2023-11-14T09:58:52.443Z,11.10
2023-11-14T09:59:54.841Z,11.10
2023-11-14T10:01:02.213Z,11.10
2023-11-14T10:02:04.485Z,11.10
2023-11-14T10:03:06.470Z,11.10
2023-11-14T10:04:11.554Z,11.10
2023-11-14T10:05:16.779Z,11.10
2023-11-14T10:06:19.332Z,11.10
2023-11-14T10:07:23.430Z,11.10
2023-11-14T10:08:25.903Z,11.10
2023-11-14T10:09:27.926Z,11.10
2023-11-14T10:10:30.452Z,11.10
2023-11-14T10:12:12.123Z,11.10
2023-11-14T10:13:21.322Z,11.20
2023-11-14T10:14:23.366Z,11.20
2023-11-14T10:15:29.925Z,11.20
2023-11-14T10:16:32.502Z,11.20
2023-11-14T10:17:41.894Z,11.20
2023-11-14T10:18:48.665Z,11.20
2023-11-14T10:20:10.978Z,11.30
2023-11-14T10:21:25.461Z,11.30
2023-11-14T10:22:28.729Z,11.30
2023-11-14T10:23:40.587Z,11.30
2023-11-14T10:24:42.855Z,11.30
2023-11-14T10:25:45.549Z,11.30
2023-11-14T10:26:52.247Z,11.30
2023-11-14T10:28:05.221Z,11.40
2023-11-14T10:29:06.999Z,11.50
2023-11-14T10:30:09.463Z,11.50
2023-11-14T10:31:16.188Z,11.50
2023-11-14T10:32:20.506Z,11.60
2023-11-14T10:33:22.813Z,11.60
2023-11-14T10:34:27.462Z,11.70
2023-11-14T10:35:29.165Z,11.70
2023-11-14T10:36:31.138Z,11.70
2023-11-14T10:37:34.597Z,11.80
2023-11-14T10:38:36.535Z,11.80
2023-11-14T10:39:53.377Z,11.90
2023-11-14T10:40:56.262Z,11.90
2023-11-14T10:42:07.166Z,11.90
2023-11-14T10:43:10.391Z,12.00
2023-11-14T10:44:14.091Z,12.00
2023-11-14T10:45:16.066Z,12.00
2023-11-14T10:46:18.491Z,12.10
2023-11-14T10:47:20.326Z,12.10
2023-11-14T10:48:23.491Z,12.10
2023-11-14T10:49:25.807Z,12.10
2023-11-14T10:50:31.593Z,12.10
2023-11-14T10:51:35.792Z,12.10
2023-11-14T10:52:39.585Z,12.10
2023-11-14T10:53:42.639Z,12.10
2023-11-14T10:54:45.636Z,12.20
2023-11-14T10:55:50.800Z,12.20
2023-11-14T10:56:58.597Z,12.20
2023-11-14T10:58:01.942Z,12.20
2023-11-14T10:59:11.613Z,12.20
2023-11-14T11:00:15.191Z,12.20
2023-11-14T11:01:18.449Z,12.10
2023-11-14T11:02:21.266Z,12.10
2023-11-14T11:03:26.036Z,12.00
2023-11-14T11:04:28.174Z,12.00
2023-11-14T11:05:32.991Z,12.00
2023-11-14T11:06:34.938Z,11.90
2023-11-14T11:07:38.228Z,11.90
2023-11-14T11:08:39.906Z,11.90
2023-11-14T11:09:41.574Z,11.90
2023-11-14T11:10:43.991Z,11.90
2023-11-14T11:11:52.560Z,11.80
2023-11-14T11:12:54.351Z,11.90
2023-11-14T11:14:00.647Z,11.90
2023-11-14T11:15:06.267Z,11.80
2023-11-14T11:16:08.133Z,11.80
2023-11-14T11:17:10.001Z,11.80
2023-11-14T11:18:12.314Z,11.80
2023-11-14T11:19:22.889Z,11.80
2023-11-14T11:20:25.699Z,11.80
2023-11-14T11:21:27.498Z,11.80
2023-11-14T11:22:49.155Z,11.80
2023-11-14T11:24:10.742Z,11.80
2023-11-14T11:25:28.218Z,11.80
2023-11-14T11:26:30.610Z,11.80
2023-11-14T11:27:41.852Z,11.70
2023-11-14T11:28:46.444Z,11.70
2023-11-14T11:30:00.726Z,11.70
2023-11-14T11:31:13.253Z,11.70
2023-11-14T11:32:29.248Z,11.70
2023-11-14T11:33:41.909Z,11.70
2023-11-14T11:34:43.635Z,11.70
2023-11-14T11:35:45.425Z,11.80
2023-11-14T11:36:47.261Z,11.80
2023-11-14T11:37:57.378Z,11.90
2023-11-14T11:39:01.392Z,12.10
2023-11-14T11:40:09.386Z,12.30
2023-11-14T11:41:14.890Z,12.50
2023-11-14T11:42:18.768Z,12.60
2023-11-14T11:43:20.521Z,12.50
2023-11-14T11:44:38.544Z,12.50
2023-11-14T11:45:42.593Z,12.40
2023-11-14T11:46:48.125Z,12.40
2023-11-14T11:47:50.014Z,12.30
2023-11-14T11:48:51.757Z,12.30
2023-11-14T11:49:53.949Z,12.20
2023-11-14T11:50:56.117Z,12.20
2023-11-14T11:52:12.059Z,12.20
2023-11-14T11:53:14.892Z,12.20
2023-11-14T11:54:28.895Z,12.10
2023-11-14T11:55:31.117Z,12.10
2023-11-14T11:56:36.001Z,12.10
2023-11-14T11:57:37.691Z,12.10
2023-11-14T11:58:49.464Z,12.10
2023-11-14T11:59:52.565Z,12.10
2023-11-14T12:01:08.056Z,12.10
2023-11-14T12:02:18.368Z,12.00
2023-11-14T12:03:20.327Z,12.00
2023-11-14T12:04:24.099Z,11.90
2023-11-14T12:05:30.782Z,11.90
2023-11-14T12:06:33.868Z,11.90
2023-11-14T12:07:36.210Z,11.90
2023-11-14T12:08:37.982Z,11.80
2023-11-14T12:09:47.097Z,11.80
2023-11-14T12:10:48.941Z,11.80
2023-11-14T12:11:50.673Z,11.80
2023-11-14T12:12:54.953Z,11.80
2023-11-14T12:13:58.364Z,11.80
2023-11-14T12:15:00.324Z,11.80
2023-11-14T12:16:02.455Z,11.80
2023-11-14T12:17:07.629Z,11.80
2023-11-14T12:18:11.236Z,11.90
2023-11-14T12:19:12.931Z,12.00
2023-11-14T12:20:15.514Z,12.20
2023-11-14T12:21:19.042Z,12.50
2023-11-14T12:22:20.844Z,12.70
2023-11-14T12:23:22.836Z,13.00
2023-11-14T12:24:24.851Z,13.30
2023-11-14T12:25:26.847Z,13.60
2023-11-14T12:26:28.921Z,13.70
2023-11-14T12:27:30.647Z,13.70
2023-11-14T12:28:40.015Z,13.70
2023-11-14T12:29:41.727Z,13.70
2023-11-14T12:31:00.321Z,13.60
2023-11-14T12:32:02.103Z,13.60
2023-11-14T12:33:10.230Z,13.50
2023-11-14T12:34:12.773Z,13.40
2023-11-14T12:35:14.709Z,13.40
2023-11-14T12:36:26.274Z,13.50
2023-11-14T12:37:28.362Z,13.50
2023-11-14T12:38:30.621Z,13.50
2023-11-14T12:39:32.307Z,13.40
2023-11-14T12:40:33.960Z,13.40
2023-11-14T12:41:35.613Z,13.30
2023-11-14T12:42:38.743Z,13.40
2023-11-14T12:43:40.409Z,13.60
2023-11-14T12:44:43.187Z,13.70
2023-11-14T12:45:49.556Z,13.90
2023-11-14T12:46:55.691Z,14.00
2023-11-14T12:47:57.951Z,14.10
2023-11-14T12:49:19.453Z,14.20
2023-11-14T12:50:24.869Z,14.10
2023-11-14T12:51:26.576Z,14.00
2023-11-14T12:52:29.329Z,14.00
2023-11-14T12:53:32.605Z,14.00
2023-11-14T12:54:34.448Z,14.20
2023-11-14T12:55:36.229Z,14.20
2023-11-14T12:56:38.303Z,14.20
2023-11-14T12:57:39.965Z,14.20
2023-11-14T12:58:41.615Z,14.10
2023-11-14T12:59:46.170Z,14.00
2023-11-14T13:00:48.007Z,13.80
2023-11-14T13:01:50.603Z,13.70
2023-11-14T13:02:52.739Z,13.50
2023-11-14T13:03:54.590Z,13.50
2023-11-14T13:04:56.509Z,13.50
2023-11-14T13:05:58.407Z,13.60
2023-11-14T13:07:00.070Z,13.70
2023-11-14T13:08:02.098Z,13.70
2023-11-14T13:09:06.365Z,13.80
2023-11-14T13:10:08.854Z,13.90
2023-11-14T13:11:11.955Z,14.00
2023-11-14T13:12:13.765Z,14.00
2023-11-14T13:13:15.464Z,14.00
2023-11-14T13:14:17.279Z,14.00
2023-11-14T13:15:19.042Z,13.90
2023-11-14T13:16:21.600Z,13.80
2023-11-14T13:17:23.293Z,13.80
2023-11-14T13:18:25.066Z,13.70
2023-11-14T13:19:26.737Z,13.70
2023-11-14T13:20:28.509Z,13.60
2023-11-14T13:21:30.875Z,13.50
2023-11-14T13:22:35.951Z,13.50
2023-11-14T13:23:39.459Z,13.40
2023-11-14T13:24:41.171Z,13.40
2023-11-14T13:25:42.880Z,13.30
2023-11-14T13:26:44.598Z,13.20
2023-11-14T13:27:46.265Z,13.20
2023-11-14T13:28:47.933Z,13.10
2023-11-14T13:29:49.600Z,13.10
2023-11-14T13:30:51.304Z,13.00
2023-11-14T13:31:53.781Z,12.90